Time;durP1;ratioP1;P1;durP2;ratioP2;P2;SDS_P1;SDS_P2;PMS_P1;PMS_P2;Temp;Humidity;BMP_temperature;BMP_pressure;BME280_temperature;BME280_humidity;BME280_pressure;Samples;Min_cycle;Max_cycle;Signal;HPM_P1;HPM_P2
2023/03/25 00:01:13;;;;;;;6.67;5.97;;;17.00;90.50;;;;;;5098800;28;20461;-89
2023/03/25 00:03:40;;;;;;;6.50;5.90;;;17.00;90.60;;;;;;5100092;28;20452;-90
2023/03/25 00:06:07;;;;;;;7.23;6.50;;;16.90;90.70;;;;;;5098557;28;20981;-86
2023/03/25 00:08:33;;;;;;;6.70;5.33;;;16.80;90.80;;;;;;5095541;28;20455;-85
2023/03/25 00:11:03;;;;;;;6.97;6.27;;;16.80;90.90;;;;;;5097037;28;20417;-86
2023/03/25 00:13:33;;;;;;;6.70;6.00;;;16.80;90.90;;;;;;5095249;28;20465;-90
2023/03/25 00:16:00;;;;;;;9.10;6.50;;;16.70;91.00;;;;;;5095625;28;20479;-90
2023/03/25 00:18:28;;;;;;;6.90;6.20;;;16.50;91.20;;;;;;5096644;28;20546;-90
2023/03/25 00:20:55;;;;;;;7.77;6.37;;;16.50;91.30;;;;;;5095171;28;20413;-84
2023/03/25 00:23:21;;;;;;;6.20;5.70;;;16.50;91.30;;;;;;5096474;28;20429;-87
2023/03/25 00:25:51;;;;;;;6.97;6.13;;;16.40;91.30;;;;;;5094896;28;20438;-86
2023/03/25 00:28:17;;;;;;;7.30;6.47;;;16.30;91.40;;;;;;5096294;28;20432;-90
2023/03/25 00:30:44;;;;;;;6.03;5.43;;;16.40;91.40;;;;;;5095187;28;20413;-86
2023/03/25 00:33:12;;;;;;;8.80;6.00;;;16.40;91.70;;;;;;5095007;28;20433;-85
2023/03/25 00:35:43;;;;;;;9.30;5.63;;;16.30;91.40;;;;;;5096249;28;20464;-85
2023/03/25 00:38:10;;;;;;;6.73;6.10;;;16.40;91.40;;;;;;5096124;28;20425;-86
2023/03/25 00:40:35;;;;;;;7.50;6.00;;;16.40;91.50;;;;;;5096240;28;20932;-85
2023/03/25 00:43:03;;;;;;;6.37;5.77;;;16.40;91.50;;;;;;5096012;28;20425;-85
2023/03/25 00:45:29;;;;;;;6.40;5.87;;;16.40;91.60;;;;;;5097351;28;20817;-88
2023/03/25 00:47:55;;;;;;;6.60;6.00;;;16.30;91.70;;;;;;5095742;28;20509;-85
2023/03/25 00:50:21;;;;;;;6.20;5.60;;;16.40;91.70;;;;;;5096234;28;20433;-86
2023/03/25 00:52:52;;;;;;;6.73;5.53;;;16.30;91.70;;;;;;5096230;28;20203;-90
2023/03/25 00:55:18;;;;;;;6.50;5.90;;;16.30;91.80;;;;;;5096065;28;20409;-91
2023/03/25 00:57:44;;;;;;;6.03;5.50;;;16.20;91.90;;;;;;5094687;28;20440;-91
2023/03/25 01:00:12;;;;;;;10.77;5.77;;;16.20;92.00;;;;;;5094709;28;20778;-89
2023/03/25 01:02:38;;;;;;;8.53;6.10;;;16.00;92.10;;;;;;5095427;28;20436;-85
2023/03/25 01:05:05;;;;;;;7.33;5.90;;;16.00;92.20;;;;;;5095852;28;20730;-89
2023/03/25 01:07:31;;;;;;;8.00;5.77;;;16.00;92.20;;;;;;5094957;28;20459;-89
2023/03/25 01:09:58;;;;;;;8.17;6.70;;;15.90;92.40;;;;;;5094513;28;20422;-85
2023/03/25 01:12:25;;;;;;;6.70;5.83;;;15.90;92.50;;;;;;5095460;28;20429;-85
2023/03/25 01:14:51;;;;;;;6.73;5.97;;;15.90;92.50;;;;;;5094114;28;20491;-91
2023/03/25 01:17:18;;;;;;;6.93;6.33;;;15.90;92.60;;;;;;5095440;28;20995;-90
2023/03/25 01:19:44;;;;;;;7.60;6.50;;;16.00;92.60;;;;;;5096168;28;20413;-86
2023/03/25 01:22:10;;;;;;;7.90;6.33;;;16.00;92.90;;;;;;5096159;28;20441;-89
2023/03/25 01:24:36;;;;;;;7.07;6.47;;;16.00;92.60;;;;;;5094066;28;20401;-85
2023/03/25 01:27:02;;;;;;;6.13;5.57;;;16.00;92.60;;;;;;5095234;28;20789;-89
2023/03/25 01:29:29;;;;;;;5.77;5.23;;;16.00;92.60;;;;;;5095242;28;20433;-85
2023/03/25 01:31:55;;;;;;;5.87;5.37;;;16.10;92.70;;;;;;5093594;28;20969;-84
2023/03/25 01:34:21;;;;;;;7.30;5.63;;;16.10;92.70;;;;;;5093978;28;20952;-84
2023/03/25 01:36:48;;;;;;;6.67;5.70;;;16.00;92.80;;;;;;5093899;28;20551;-90
2023/03/25 01:39:17;;;;;;;6.87;6.20;;;16.00;92.90;;;;;;5093887;28;20524;-91
2023/03/25 01:41:45;;;;;;;6.30;5.70;;;16.00;93.00;;;;;;5093920;28;20417;-85
2023/03/25 01:44:13;;;;;;;7.00;5.90;;;16.00;93.00;;;;;;5093759;28;20424;-86
2023/03/25 01:46:43;;;;;;;6.60;6.00;;;16.00;93.00;;;;;;5093692;28;20925;-86
2023/03/25 01:49:20;;;;;;;6.70;6.00;;;16.00;93.40;;;;;;5093657;28;20420;-90
2023/03/25 01:51:47;;;;;;;9.07;5.80;;;16.00;93.20;;;;;;5094389;28;20432;-86
2023/03/25 01:54:16;;;;;;;7.33;6.23;;;16.00;93.30;;;;;;5097787;28;20401;-84
2023/03/25 01:56:45;;;;;;;6.50;5.90;;;16.00;93.30;;;;;;5097310;28;20812;-92
2023/03/25 01:59:14;;;;;;;8.40;5.93;;;16.00;93.40;;;;;;5095377;28;20468;-90
2023/03/25 02:01:44;;;;;;;6.47;5.87;;;16.00;93.40;;;;;;5093468;28;20520;-86
2023/03/25 02:04:13;;;;;;;6.37;5.77;;;16.00;93.50;;;;;;5094636;28;20405;-91
2023/03/25 02:06:52;;;;;;;7.27;6.57;;;16.00;93.50;;;;;;5093184;28;20961;-89
2023/03/25 02:09:21;;;;;;;8.37;6.83;;;16.00;93.70;;;;;;5093471;28;20464;-84
2023/03/25 02:11:47;;;;;;;7.87;6.07;;;16.00;93.70;;;;;;5094793;28;20417;-86
2023/03/25 02:14:20;;;;;;;7.00;6.30;;;16.00;93.70;;;;;;5093418;28;20449;-85
2023/03/25 02:17:20;;;;;;;8.00;6.50;;;16.00;93.80;;;;;;5093410;28;20469;-90
2023/03/25 02:19:50;;;;;;;8.13;7.33;;;16.00;94.00;;;;;;5093258;28;20533;-90
2023/03/25 02:22:36;;;;;;;7.27;6.57;;;15.90;94.20;;;;;;5092991;28;20783;-91
2023/03/25 02:25:23;;;;;;;6.97;6.00;;;15.90;94.30;;;;;;5093463;28;20433;-86
2023/03/25 02:28:14;;;;;;;7.63;6.37;;;15.90;94.40;;;;;;5093027;28;21024;-89
2023/03/25 02:31:17;;;;;;;8.40;7.27;;;15.80;94.50;;;;;;5092949;28;20997;-86
2023/03/25 02:34:01;;;;;;;7.37;6.67;;;15.90;94.70;;;;;;5081278;28;21026;-86
2023/03/25 02:36:48;;;;;;;7.87;7.17;;;15.80;94.90;;;;;;5096396;28;20467;-86
2023/03/25 02:39:51;;;;;;;9.20;7.10;;;15.80;95.10;;;;;;5094937;28;20452;-85
2023/03/25 02:42:26;;;;;;;12.67;7.07;;;15.80;95.20;;;;;;5091794;28;20957;-86
2023/03/25 02:44:57;;;;;;;8.00;6.67;;;15.80;95.30;;;;;;5094176;28;20416;-85
2023/03/25 02:47:28;;;;;;;8.60;7.40;;;15.80;95.40;;;;;;5092830;28;20486;-89
2023/03/25 02:50:04;;;;;;;8.03;7.23;;;15.80;95.50;;;;;;5092839;28;20425;-87
2023/03/25 02:52:39;;;;;;;7.70;7.00;;;15.80;95.60;;;;;;5093992;28;20481;-90
2023/03/25 02:55:09;;;;;;;8.30;7.50;;;15.80;95.80;;;;;;5092954;28;20435;-86
2023/03/25 02:57:38;;;;;;;7.77;7.03;;;15.80;95.90;;;;;;5092532;28;20483;-86
2023/03/25 03:00:14;;;;;;;8.87;7.50;;;15.80;96.00;;;;;;5092868;28;20421;-85
2023/03/25 03:02:52;;;;;;;9.07;8.17;;;15.90;96.10;;;;;;5092456;28;20519;-85
2023/03/25 03:05:29;;;;;;;7.87;7.17;;;15.90;96.50;;;;;;5092911;28;20808;-90
2023/03/25 03:08:27;;;;;;;8.63;7.70;;;15.90;96.30;;;;;;5092343;28;20532;-90
2023/03/25 03:11:11;;;;;;;8.77;7.97;;;15.90;96.40;;;;;;5084832;28;20437;-85
2023/03/25 03:14:04;;;;;;;11.60;7.50;;;15.90;96.40;;;;;;5092447;28;20477;-86
2023/03/25 03:17:08;;;;;;;11.10;8.20;;;15.90;96.70;;;;;;5092634;28;20841;-89
2023/03/25 03:19:40;;;;;;;13.27;9.07;;;15.90;96.80;;;;;;5091770;28;20415;-86
2023/03/25 03:22:28;;;;;;;9.30;8.10;;;15.80;96.90;;;;;;5093170;28;20494;-88
2023/03/25 03:25:16;;;;;;;8.47;7.63;;;15.80;97.10;;;;;;5093264;28;20451;-86
2023/03/25 03:27:42;;;;;;;8.57;7.73;;;15.90;97.10;;;;;;5096332;28;20455;-86
2023/03/25 03:30:13;;;;;;;10.63;7.83;;;15.90;97.20;;;;;;5096372;28;20425;-90
2023/03/25 03:33:14;;;;;;;8.53;7.63;;;15.80;97.30;;;;;;5096122;28;20200;-85
2023/03/25 03:35:48;;;;;;;8.43;7.63;;;15.80;97.50;;;;;;5097371;28;20513;-84
2023/03/25 03:38:18;;;;;;;9.17;8.30;;;15.80;97.30;;;;;;5097284;28;20428;-89
2023/03/25 03:41:40;;;;;;;8.10;7.43;;;15.80;97.70;;;;;;5097439;28;20424;-85
2023/03/25 03:44:11;;;;;;;9.13;8.23;;;15.70;97.90;;;;;;5100452;28;20394;-89
2023/03/25 03:46:42;;;;;;;8.63;7.83;;;15.70;98.10;;;;;;5098777;28;20419;-91
2023/03/25 03:49:17;;;;;;;8.73;7.83;;;15.60;98.30;;;;;;5096631;28;20949;-90
2023/03/25 03:51:56;;;;;;;8.77;7.90;;;15.60;98.50;;;;;;5097519;28;20834;-85
2023/03/25 03:54:28;;;;;;;9.97;8.33;;;15.60;98.50;;;;;;5095742;28;20448;-90
2023/03/25 03:57:01;;;;;;;8.63;7.83;;;15.60;98.80;;;;;;5096942;28;20566;-84
2023/03/25 03:59:41;;;;;;;9.03;8.13;;;15.70;98.90;;;;;;5095590;28;20447;-86
2023/03/25 04:02:29;;;;;;;10.33;9.23;;;15.70;99.10;;;;;;5095818;28;20440;-86
2023/03/25 04:04:59;;;;;;;9.33;8.37;;;15.70;99.20;;;;;;5095573;28;20460;-90
2023/03/25 04:07:40;;;;;;;9.67;8.67;;;15.70;99.40;;;;;;5095560;28;21022;-90
2023/03/25 04:10:28;;;;;;;8.90;8.00;;;15.70;99.50;;;;;;5095798;28;20999;-90
2023/03/25 04:12:57;;;;;;;9.53;8.53;;;15.80;99.60;;;;;;5095533;28;21044;-91
2023/03/25 04:15:23;;;;;;;10.23;8.00;;;15.80;99.70;;;;;;5096749;28;20906;-86
2023/03/25 04:17:49;;;;;;;8.80;7.90;;;15.80;99.90;;;;;;5096486;28;20432;-90
2023/03/25 04:20:22;;;;;;;10.07;7.93;;;15.80;99.90;;;;;;5096964;28;20206;-86
2023/03/25 04:22:50;;;;;;;9.50;7.57;;;15.80;99.90;;;;;;5099292;28;20477;-85
2023/03/25 04:25:16;;;;;;;10.63;7.63;;;15.80;99.90;;;;;;5095941;28;20429;-86
2023/03/25 04:27:44;;;;;;;8.53;7.73;;;15.90;99.90;;;;;;5095354;28;20440;-90
2023/03/25 04:30:10;;;;;;;10.40;7.73;;;15.90;99.90;;;;;;5097070;28;20405;-84
2023/03/25 04:32:36;;;;;;;10.63;6.37;;;15.90;99.90;;;;;;5096047;28;20474;-89
2023/03/25 04:35:02;;;;;;;8.70;6.80;;;16.00;99.90;;;;;;5095397;28;20420;-85
2023/03/25 04:37:28;;;;;;;9.40;6.80;;;16.00;99.90;;;;;;5093993;28;20505;-90
2023/03/25 04:39:54;;;;;;;7.27;6.30;;;16.10;99.90;;;;;;5094890;28;20543;-90
2023/03/25 04:42:24;;;;;;;9.50;7.17;;;16.10;99.90;;;;;;5095003;28;20437;-88
2023/03/25 04:44:51;;;;;;;8.40;7.50;;;16.10;99.90;;;;;;5095996;28;20404;-84
2023/03/25 04:47:22;;;;;;;7.53;6.33;;;16.20;99.90;;;;;;5094761;28;20437;-90
2023/03/25 04:49:48;;;;;;;8.47;7.67;;;16.20;99.90;;;;;;5095979;28;20879;-90
2023/03/25 04:52:15;;;;;;;12.27;8.90;;;16.20;99.90;;;;;;5094542;28;20437;-90
2023/03/25 04:54:41;;;;;;;12.07;10.10;;;16.10;99.90;;;;;;5095887;28;20172;-85
2023/03/25 04:57:09;;;;;;;13.37;10.40;;;16.10;99.90;;;;;;5094293;28;20480;-86
2023/03/25 04:59:35;;;;;;;12.37;9.83;;;16.10;99.90;;;;;;5095686;28;20474;-90
2023/03/25 05:02:04;;;;;;;11.03;9.93;;;16.10;99.90;;;;;;5094618;28;20429;-90
2023/03/25 05:04:30;;;;;;;11.77;10.10;;;16.10;99.90;;;;;;5094309;28;20454;-85
2023/03/25 05:06:56;;;;;;;11.07;9.30;;;16.00;99.90;;;;;;5094163;28;20440;-84
2023/03/25 05:09:22;;;;;;;16.47;9.83;;;16.00;99.90;;;;;;5094739;28;20399;-84
2023/03/25 05:11:49;;;;;;;10.83;9.50;;;16.00;99.90;;;;;;5096675;28;20409;-85
2023/03/25 05:14:18;;;;;;;10.70;9.60;;;16.00;99.90;;;;;;5098756;28;20255;-85
2023/03/25 05:16:44;;;;;;;9.60;8.47;;;16.00;99.90;;;;;;5099404;28;20472;-85
2023/03/25 05:19:10;;;;;;;10.60;8.87;;;15.90;99.90;;;;;;5098352;28;20443;-89
2023/03/25 05:21:38;;;;;;;12.60;9.13;;;15.90;99.90;;;;;;5096173;28;20421;-85
2023/03/25 05:24:07;;;;;;;10.20;7.70;;;16.00;99.90;;;;;;5100587;28;20910;-85
2023/03/25 05:26:33;;;;;;;8.77;7.90;;;15.90;99.90;;;;;;5098049;28;20421;-86
2023/03/25 05:29:03;;;;;;;9.70;8.70;;;15.90;99.90;;;;;;5098624;28;20409;-89
2023/03/25 05:31:29;;;;;;;9.47;8.47;;;15.80;99.90;;;;;;5095547;28;20409;-89
2023/03/25 05:33:55;;;;;;;8.57;7.67;;;15.80;99.90;;;;;;5094953;28;20409;-83
2023/03/25 05:36:23;;;;;;;12.20;7.40;;;15.80;99.90;;;;;;5095046;28;20491;-89
2023/03/25 05:38:53;;;;;;;8.30;7.40;;;15.70;99.90;;;;;;5093926;28;20436;-90
2023/03/25 05:41:21;;;;;;;6.13;5.50;;;15.70;99.90;;;;;;5093906;28;20929;-89
2023/03/25 05:43:49;;;;;;;5.40;4.87;;;15.60;99.90;;;;;;5093637;28;20429;-85
2023/03/25 05:46:17;;;;;;;5.77;4.30;;;15.50;99.90;;;;;;5093809;28;20937;-86
2023/03/25 05:48:43;;;;;;;5.20;3.70;;;15.50;99.90;;;;;;5093459;28;20490;-85
2023/03/25 05:51:15;;;;;;;3.73;3.33;;;15.40;99.90;;;;;;5093726;28;20511;-88
2023/03/25 05:53:42;;;;;;;3.63;2.93;;;15.30;99.90;;;;;;5094596;28;20482;-88
2023/03/25 05:56:10;;;;;;;5.63;3.50;;;15.20;99.90;;;;;;5093473;28;20469;-85
2023/03/25 05:58:36;;;;;;;3.60;3.17;;;15.20;99.90;;;;;;5093184;28;20448;-90
2023/03/25 06:01:03;;;;;;;4.20;3.80;;;15.10;99.90;;;;;;5093535;28;20417;-86
2023/03/25 06:03:29;;;;;;;3.10;2.70;;;15.10;99.90;;;;;;5094490;28;20786;-90
2023/03/25 06:05:55;;;;;;;2.90;2.67;;;15.00;99.90;;;;;;5093333;28;20446;-90
2023/03/25 06:08:24;;;;;;;3.17;2.90;;;15.00;99.90;;;;;;5093143;28;20540;-86
2023/03/25 06:11:00;;;;;;;3.23;2.93;;;14.90;99.90;;;;;;5093115;28;20420;-89
2023/03/25 06:13:26;;;;;;;5.07;3.50;;;14.90;99.90;;;;;;5092875;28;20474;-84
2023/03/25 06:15:55;;;;;;;5.50;3.70;;;14.80;99.90;;;;;;5093097;28;20469;-85
2023/03/25 06:18:25;;;;;;;3.17;2.60;;;14.80;99.90;;;;;;5093203;28;20518;-88
2023/03/25 06:20:56;;;;;;;4.00;2.30;;;14.80;99.90;;;;;;5097882;28;20400;-89
2023/03/25 06:23:22;;;;;;;3.20;2.63;;;14.80;99.90;;;;;;5094395;28;20437;-90
2023/03/25 06:25:52;;;;;;;2.60;2.10;;;14.80;99.90;;;;;;5094060;28;20452;-91
2023/03/25 06:28:18;;;;;;;2.60;2.40;;;14.80;99.90;;;;;;5093200;28;20543;-86
2023/03/25 06:30:47;;;;;;;2.50;2.30;;;14.80;99.90;;;;;;5093009;28;20452;-85
2023/03/25 06:33:14;;;;;;;3.00;2.20;;;14.70;99.90;;;;;;5094092;28;20425;-90
2023/03/25 06:35:42;;;;;;;4.33;2.63;;;14.70;99.90;;;;;;5094272;28;20452;-90
2023/03/25 06:38:09;;;;;;;2.50;2.30;;;14.70;99.90;;;;;;5092784;28;20775;-89
2023/03/25 06:40:38;;;;;;;3.13;2.67;;;14.70;99.90;;;;;;5092966;28;20425;-85
2023/03/25 06:43:05;;;;;;;2.30;2.10;;;14.70;99.90;;;;;;5093084;28;20486;-85
2023/03/25 06:45:31;;;;;;;3.13;2.50;;;14.60;99.90;;;;;;5093967;28;20835;-89
2023/03/25 06:47:58;;;;;;;2.47;2.27;;;14.70;99.90;;;;;;5092570;28;20480;-84
2023/03/25 06:50:23;;;;;;;4.43;3.30;;;14.70;99.90;;;;;;5092576;28;20417;-85
2023/03/25 06:52:49;;;;;;;2.80;2.13;;;14.70;99.90;;;;;;5093729;28;20428;-85
2023/03/25 06:55:15;;;;;;;3.60;2.80;;;14.70;99.90;;;;;;5093868;28;20168;-89
2023/03/25 06:57:43;;;;;;;5.63;4.43;;;14.60;99.90;;;;;;5093649;28;20689;-85
2023/03/25 07:00:13;;;;;;;11.20;9.50;;;14.60;99.90;;;;;;5095111;28;20441;-85
2023/03/25 07:02:39;;;;;;;4.07;3.67;;;14.60;99.90;;;;;;5096681;28;20444;-90
2023/03/25 07:05:05;;;;;;;4.50;3.67;;;14.60;99.90;;;;;;5096625;28;20486;-85
2023/03/25 07:07:32;;;;;;;8.40;6.13;;;14.60;99.90;;;;;;5096479;28;20468;-89
2023/03/25 07:09:57;;;;;;;5.10;4.50;;;14.60;99.90;;;;;;5100331;28;20480;-89
2023/03/25 07:12:23;;;;;;;3.73;2.67;;;14.60;99.90;;;;;;5098585;28;20464;-89
2023/03/25 07:14:54;;;;;;;4.43;3.00;;;14.50;99.90;;;;;;5097562;28;20235;-84
2023/03/25 07:17:20;;;;;;;5.90;3.80;;;14.50;99.90;;;;;;5096437;28;20481;-90
2023/03/25 07:19:46;;;;;;;3.60;3.07;;;14.50;99.90;;;;;;5096449;28;20425;-85
2023/03/25 07:22:11;;;;;;;2.90;2.43;;;14.60;99.90;;;;;;5097917;28;20949;-89
2023/03/25 07:24:37;;;;;;;3.47;3.17;;;14.60;99.90;;;;;;5097532;28;20401;-85
2023/03/25 07:27:03;;;;;;;6.93;3.00;;;14.60;99.90;;;;;;5096142;28;20452;-86
2023/03/25 07:29:29;;;;;;;3.13;2.27;;;14.60;99.90;;;;;;5097355;28;20164;-87
2023/03/25 07:31:55;;;;;;;3.47;2.03;;;14.60;99.90;;;;;;5095977;28;20212;-89
2023/03/25 07:34:21;;;;;;;7.50;3.73;;;14.60;99.90;;;;;;5097472;28;20405;-88
2023/03/25 07:36:46;;;;;;;9.20;4.07;;;14.50;99.90;;;;;;5097722;28;20207;-86
2023/03/25 07:39:12;;;;;;;4.43;3.00;;;14.60;99.90;;;;;;5097199;28;20427;-85
2023/03/25 07:41:37;;;;;;;19.73;10.93;;;14.60;99.90;;;;;;5096104;28;20180;-90
2023/03/25 07:44:03;;;;;;;4.50;3.53;;;14.70;99.90;;;;;;5100196;28;20245;-86
2023/03/25 07:46:29;;;;;;;2.50;2.30;;;14.70;99.90;;;;;;5100661;28;20214;-84
2023/03/25 07:48:55;;;;;;;3.47;2.93;;;14.70;99.90;;;;;;5100359;28;20784;-88
2023/03/25 07:51:21;;;;;;;3.70;2.27;;;14.80;99.90;;;;;;5101013;28;20401;-85
2023/03/25 07:53:47;;;;;;;2.73;2.53;;;14.80;99.90;;;;;;5099992;28;20528;-85
2023/03/25 07:56:14;;;;;;;4.20;2.17;;;14.70;99.90;;;;;;5095714;28;20211;-89
2023/03/25 07:58:40;;;;;;;2.50;2.10;;;14.70;99.90;;;;;;5096812;28;20465;-85
2023/03/25 08:01:07;;;;;;;3.00;1.90;;;14.80;99.90;;;;;;5096906;28;20409;-86
2023/03/25 08:03:33;;;;;;;2.07;1.87;;;14.90;99.90;;;;;;5096851;28;20937;-85
2023/03/25 08:06:01;;;;;;;4.10;1.77;;;14.80;99.90;;;;;;5095739;28;20428;-85
2023/03/25 08:08:28;;;;;;;6.63;3.87;;;14.90;99.90;;;;;;5093859;28;20491;-85
2023/03/25 08:10:55;;;;;;;3.10;1.47;;;14.90;99.90;;;;;;5094844;28;20467;-84
2023/03/25 08:13:21;;;;;;;2.30;2.10;;;15.00;99.90;;;;;;5095565;28;20464;-85
2023/03/25 08:15:47;;;;;;;9.03;7.03;;;15.00;99.90;;;;;;5095453;28;20465;-89
2023/03/25 08:18:13;;;;;;;3.60;3.30;;;15.10;99.90;;;;;;5095273;28;20511;-86
2023/03/25 08:20:40;;;;;;;3.00;2.03;;;15.10;99.90;;;;;;5095111;28;20858;-90
2023/03/25 08:23:09;;;;;;;3.90;2.37;;;15.10;99.90;;;;;;5096473;28;20425;-87
2023/03/25 08:25:39;;;;;;;3.77;2.20;;;15.10;99.90;;;;;;5096346;28;20918;-85
2023/03/25 08:28:05;;;;;;;1.80;1.53;;;15.20;99.90;;;;;;5095030;28;20516;-89
2023/03/25 08:30:38;;;;;;;2.90;2.00;;;15.20;99.90;;;;;;5096296;28;20500;-88
2023/03/25 08:33:06;;;;;;;1.77;1.67;;;15.20;99.90;;;;;;5096391;28;20554;-89
2023/03/25 08:35:33;;;;;;;2.23;1.80;;;15.30;99.90;;;;;;5096283;28;20432;-84
2023/03/25 08:38:00;;;;;;;2.03;1.80;;;15.40;99.90;;;;;;5095043;28;20524;-89
2023/03/25 08:40:26;;;;;;;3.20;2.00;;;15.40;99.90;;;;;;5096303;28;20915;-89
2023/03/25 08:42:52;;;;;;;2.00;1.77;;;15.50;99.90;;;;;;5096021;28;20417;-89
2023/03/25 08:45:18;;;;;;;3.47;2.57;;;15.50;99.90;;;;;;5096256;28;20511;-90
2023/03/25 08:47:45;;;;;;;4.83;4.03;;;15.60;99.90;;;;;;5095907;28;20528;-85
2023/03/25 08:50:10;;;;;;;2.17;1.97;;;15.60;99.90;;;;;;5095856;28;20178;-89
2023/03/25 08:52:36;;;;;;;3.17;2.57;;;15.70;99.90;;;;;;5095897;28;20934;-90
2023/03/25 08:55:03;;;;;;;3.23;2.90;;;15.70;99.90;;;;;;5095793;28;20428;-86
2023/03/25 08:57:29;;;;;;;1.60;1.50;;;15.90;99.90;;;;;;5095324;28;20589;-89
2023/03/25 08:59:55;;;;;;;1.80;1.70;;;15.90;99.90;;;;;;5093472;28;20417;-89
2023/03/25 09:02:24;;;;;;;2.13;1.93;;;15.90;99.90;;;;;;5099219;28;20433;-85
2023/03/25 09:04:53;;;;;;;2.17;1.97;;;15.90;99.90;;;;;;5096014;28;20496;-85
2023/03/25 09:07:18;;;;;;;3.70;2.27;;;16.00;99.90;;;;;;5093421;28;20441;-86
2023/03/25 09:09:45;;;;;;;2.30;2.10;;;16.10;99.90;;;;;;5092446;28;20412;-90
2023/03/25 09:12:11;;;;;;;7.87;4.77;;;16.20;99.90;;;;;;5093523;28;20222;-88
2023/03/25 09:14:38;;;;;;;12.63;3.97;;;16.30;99.90;;;;;;5092077;28;20488;-90
2023/03/25 09:17:05;;;;;;;2.43;1.90;;;16.50;99.90;;;;;;5093388;28;20500;-92
2023/03/25 09:19:32;;;;;;;2.80;1.60;;;16.80;99.90;;;;;;5092063;28;20409;-85
2023/03/25 09:21:58;;;;;;;2.07;1.97;;;16.90;99.90;;;;;;5093083;28;20465;-89
2023/03/25 09:24:24;;;;;;;2.07;1.80;;;16.90;99.90;;;;;;5091918;28;20445;-87
2023/03/25 09:26:50;;;;;;;3.00;2.70;;;16.90;99.90;;;;;;5092977;28;20192;-88
2023/03/25 09:29:16;;;;;;;1.97;1.77;;;16.90;99.90;;;;;;5094323;28;20960;-84
2023/03/25 09:31:42;;;;;;;7.40;3.27;;;17.00;99.90;;;;;;5093975;28;20226;-86
2023/03/25 09:34:08;;;;;;;4.30;2.30;;;17.00;99.90;;;;;;5093888;28;20249;-84
2023/03/25 09:36:34;;;;;;;2.77;1.80;;;17.10;99.90;;;;;;5093723;28;20571;-90
2023/03/25 09:39:00;;;;;;;3.73;2.87;;;17.10;99.90;;;;;;5093921;28;20453;-88
2023/03/25 09:41:53;;;;;;;4.20;2.70;;;17.00;99.90;;;;;;5093891;28;20261;-89
2023/03/25 09:44:59;;;;;;;3.00;2.67;;;16.90;99.90;;;;;;5094935;28;20172;-89
2023/03/25 09:47:25;;;;;;;1.90;1.80;;;16.90;99.90;;;;;;5082028;28;20449;-89
2023/03/25 09:49:57;;;;;;;3.63;2.77;;;17.00;99.90;;;;;;5094924;28;20901;-86
2023/03/25 09:52:35;;;;;;;3.63;2.27;;;17.00;99.90;;;;;;5096026;28;20464;-86
2023/03/25 09:55:12;;;;;;;3.00;2.70;;;16.90;99.90;;;;;;5097663;28;20477;-86
2023/03/25 09:57:48;;;;;;;3.37;2.03;;;17.00;99.90;;;;;;5097189;28;20635;-90
2023/03/25 10:00:21;;;;;;;5.20;3.43;;;17.30;99.90;;;;;;5095549;28;20428;-89
2023/03/25 10:03:01;;;;;;;4.27;3.03;;;17.50;99.90;;;;;;5093920;28;20579;-86
2023/03/25 10:05:45;;;;;;;6.10;4.20;;;17.80;99.90;;;;;;5093293;28;20523;-90
2023/03/25 10:08:39;;;;;;;4.07;3.60;;;17.90;99.90;;;;;;5094615;28;20440;-86
2023/03/25 10:11:06;;;;;;;2.40;2.20;;;17.90;99.90;;;;;;5093108;28;20425;-86
2023/03/25 10:14:05;;;;;;;2.10;1.70;;;17.90;99.90;;;;;;5094128;28;20864;-90
2023/03/25 10:17:01;;;;;;;6.60;2.83;;;17.90;99.90;;;;;;5093108;28;20469;-85
2023/03/25 10:19:39;;;;;;;1.90;1.70;;;18.00;99.90;;;;;;5094383;28;20421;-90
2023/03/25 10:22:08;;;;;;;1.90;1.60;;;17.90;99.90;;;;;;5094489;28;20438;-90
2023/03/25 10:24:41;;;;;;;5.10;1.80;;;17.90;99.90;;;;;;5093114;28;20850;-89
2023/03/25 10:27:29;;;;;;;4.23;1.53;;;17.80;99.90;;;;;;5094151;28;20430;-89
2023/03/25 10:29:57;;;;;;;2.77;1.50;;;17.80;99.90;;;;;;5094268;28;20504;-89
2023/03/25 10:32:49;;;;;;;2.77;2.13;;;17.80;99.90;;;;;;5094125;28;20431;-89
2023/03/25 10:35:20;;;;;;;2.67;2.00;;;17.90;99.90;;;;;;5092252;28;20426;-88
2023/03/25 10:37:48;;;;;;;6.40;2.00;;;18.00;99.90;;;;;;5093361;28;20477;-90
2023/03/25 10:40:28;;;;;;;2.50;1.87;;;18.10;99.90;;;;;;5094057;28;20428;-85
2023/03/25 10:43:13;;;;;;;2.30;2.07;;;18.10;99.90;;;;;;5096013;28;20434;-85
2023/03/25 10:45:41;;;;;;;2.50;2.30;;;18.10;99.90;;;;;;5099771;28;20416;-88
2023/03/25 10:48:27;;;;;;;2.50;2.17;;;18.10;99.90;;;;;;5096151;28;20442;-86
2023/03/25 10:51:05;;;;;;;3.13;2.40;;;18.10;99.90;;;;;;5092529;28;20435;-85
2023/03/25 10:53:31;;;;;;;2.33;2.00;;;18.20;99.90;;;;;;5093620;28;20462;-84
2023/03/25 10:56:18;;;;;;;4.40;2.70;;;18.30;99.90;;;;;;5092626;28;20505;-89
2023/03/25 10:58:51;;;;;;;3.13;2.13;;;18.30;99.90;;;;;;5092530;28;20438;-89
2023/03/25 11:01:39;;;;;;;2.07;1.93;;;18.40;99.90;;;;;;5092845;28;20426;-92
2023/03/25 11:04:15;;;;;;;2.83;1.80;;;18.40;99.90;;;;;;5092510;28;20422;-90
2023/03/25 11:06:45;;;;;;;2.70;2.20;;;18.30;99.90;;;;;;5094174;28;20424;-89
2023/03/25 11:09:22;;;;;;;3.37;2.03;;;18.40;99.90;;;;;;5092651;28;20919;-85
2023/03/25 11:11:48;;;;;;;2.30;2.10;;;18.50;99.90;;;;;;5094252;28;20429;-89
2023/03/25 11:14:15;;;;;;;3.60;2.27;;;18.60;99.90;;;;;;5092421;28;20565;-89
2023/03/25 11:16:52;;;;;;;2.57;2.37;;;18.60;99.90;;;;;;5094442;28;20898;-89
2023/03/25 11:19:22;;;;;;;4.07;1.87;;;18.60;99.90;;;;;;5094345;28;20955;-86
2023/03/25 11:21:54;;;;;;;2.23;2.03;;;18.60;99.90;;;;;;5094239;28;20424;-86
2023/03/25 11:24:22;;;;;;;2.33;1.90;;;18.80;99.90;;;;;;5098351;28;20902;-86
2023/03/25 11:26:51;;;;;;;2.10;1.40;;;18.80;99.90;;;;;;5095834;28;20471;-90
2023/03/25 11:29:25;;;;;;;3.90;1.93;;;18.90;99.90;;;;;;5092364;28;20420;-86
2023/03/25 11:32:12;;;;;;;2.17;1.97;;;18.80;99.90;;;;;;5094020;28;20435;-89
2023/03/25 11:34:40;;;;;;;3.10;2.20;;;18.90;99.90;;;;;;5092433;28;20411;-90
2023/03/25 11:37:18;;;;;;;2.73;1.60;;;18.90;99.90;;;;;;5093161;28;20478;-86
2023/03/25 11:39:54;;;;;;;2.50;2.00;;;18.80;99.90;;;;;;5093910;28;20396;-89
2023/03/25 11:42:45;;;;;;;4.77;3.23;;;18.80;99.90;;;;;;5092137;28;20571;-90
2023/03/25 11:45:20;;;;;;;4.00;2.60;;;18.70;99.90;;;;;;5092101;28;20462;-90
2023/03/25 11:47:46;;;;;;;1.73;1.63;;;18.80;99.90;;;;;;5095633;28;20556;-84
2023/03/25 11:50:24;;;;;;;7.00;2.97;;;18.90;99.90;;;;;;5096579;28;20458;-85
2023/03/25 11:52:57;;;;;;;1.80;1.70;;;18.90;99.90;;;;;;5095981;28;20235;-90
2023/03/25 11:55:34;;;;;;;2.20;1.87;;;18.90;99.90;;;;;;5096629;28;20447;-90
2023/03/25 11:58:01;;;;;;;3.37;2.83;;;18.90;99.90;;;;;;5096840;28;21082;-89
2023/03/25 12:00:40;;;;;;;2.90;2.27;;;18.90;99.90;;;;;;5095378;28;20571;-87
2023/03/25 12:03:11;;;;;;;3.00;1.50;;;18.90;99.90;;;;;;5096685;28;20431;-89
2023/03/25 12:05:38;;;;;;;2.17;1.73;;;18.80;99.90;;;;;;5097209;28;20785;-89
2023/03/25 12:08:14;;;;;;;1.57;1.47;;;18.70;99.90;;;;;;5096396;28;20438;-86
2023/03/25 12:11:07;;;;;;;6.73;2.73;;;18.60;99.90;;;;;;5065554;28;20446;-86
2023/03/25 12:14:07;;;;;;;3.33;2.23;;;18.50;99.90;;;;;;5058386;28;20509;-81
2023/03/25 12:16:43;;;;;;;1.77;1.43;;;18.50;99.90;;;;;;5074911;28;20516;-82
2023/03/25 12:19:30;;;;;;;2.77;1.67;;;18.50;99.90;;;;;;5073372;28;20518;-84
2023/03/25 12:22:27;;;;;;;3.63;2.00;;;18.50;99.90;;;;;;5074414;28;20528;-85
2023/03/25 12:25:18;;;;;;;1.90;1.60;;;18.60;99.90;;;;;;5074538;28;20427;-78
2023/03/25 12:28:19;;;;;;;2.23;1.97;;;18.60;99.90;;;;;;5056135;28;20451;-83
2023/03/25 12:30:55;;;;;;;2.60;1.93;;;18.50;99.90;;;;;;5039873;28;20466;-84
2023/03/25 12:34:26;;;;;;;3.17;1.63;;;18.50;99.90;;;;;;5077186;28;20447;-77
2023/03/25 12:36:58;;;;;;;2.80;2.07;;;18.40;99.90;;;;;;5047204;28;20890;-77
2023/03/25 12:39:47;;;;;;;1.70;1.60;;;18.30;99.90;;;;;;5052204;28;20523;-83
2023/03/25 12:42:33;;;;;;;2.60;1.80;;;18.30;99.90;;;;;;5075703;28;20450;-83
2023/03/25 12:45:20;;;;;;;2.20;1.50;;;18.20;99.90;;;;;;5088863;28;20781;-83
2023/03/25 12:48:04;;;;;;;2.10;1.90;;;18.20;99.90;;;;;;5076242;28;20537;-78
2023/03/25 12:50:33;;;;;;;2.47;2.03;;;18.30;99.90;;;;;;5084755;28;20442;-78
2023/03/25 12:53:18;;;;;;;5.60;3.17;;;18.30;99.90;;;;;;5085654;28;20458;-78
2023/03/25 12:56:06;;;;;;;1.60;1.50;;;18.30;99.90;;;;;;5085122;28;20433;-84
2023/03/25 12:59:01;;;;;;;2.03;1.83;;;18.30;99.90;;;;;;5080418;28;20834;-78
2023/03/25 13:01:41;;;;;;;6.83;3.33;;;18.30;99.90;;;;;;5089713;28;20922;-84
2023/03/25 13:04:26;;;;;;;3.00;2.20;;;18.30;99.90;;;;;;5078694;28;20514;-78
2023/03/25 13:07:00;;;;;;;7.93;4.73;;;18.30;99.90;;;;;;5077541;28;20886;-78
2023/03/25 13:09:51;;;;;;;2.03;1.90;;;18.30;99.90;;;;;;5086008;28;20796;-83
2023/03/25 13:12:28;;;;;;;4.70;1.87;;;18.20;99.90;;;;;;5070993;28;20455;-84